sensor_id;sensor_type;location;lat;lon;timestamp;P1;durP1;ratioP1;P2;durP2;ratioP2
47365;SDS011;33105;47.964;7.982;2023-08-21T00:02:07;8.32;;;7.53;;
47365;SDS011;33105;47.964;7.982;2023-08-21T00:05:08;9.85;;;7.38;;
47365;SDS011;33105;47.964;7.982;2023-08-21T00:08:10;13.32;;;7.18;;
47365;SDS011;33105;47.964;7.982;2023-08-21T00:12:16;13.20;;;7.78;;
47365;SDS011;33105;47.964;7.982;2023-08-21T00:15:11;13.63;;;7.75;;
47365;SDS011;33105;47.964;7.982;2023-08-21T00:18:20;9.95;;;7.53;;
47365;SDS011;33105;47.964;7.982;2023-08-21T00:22:10;13.75;;;7.60;;
47365;SDS011;33105;47.964;7.982;2023-08-21T00:25:27;13.90;;;7.32;;
47365;SDS011;33105;47.964;7.982;2023-08-21T00:28:53;13.57;;;7.72;;
47365;SDS011;33105;47.964;7.982;2023-08-21T00:32:12;9.40;;;7.65;;
47365;SDS011;33105;47.964;7.982;2023-08-21T00:35:13;9.55;;;7.53;;
47365;SDS011;33105;47.964;7.982;2023-08-21T00:38:19;12.45;;;7.53;;
47365;SDS011;33105;47.964;7.982;2023-08-21T00:41:25;11.80;;;7.40;;
47365;SDS011;33105;47.964;7.982;2023-08-21T00:45:00;10.80;;;7.85;;
47365;SDS011;33105;47.964;7.982;2023-08-21T00:48:02;14.98;;;7.57;;
47365;SDS011;33105;47.964;7.982;2023-08-21T00:51:26;11.70;;;7.50;;
47365;SDS011;33105;47.964;7.982;2023-08-21T00:58:30;9.50;;;8.15;;
47365;SDS011;33105;47.964;7.982;2023-08-21T01:01:55;14.90;;;7.70;;
47365;SDS011;33105;47.964;7.982;2023-08-21T01:17:18;10.43;;;7.45;;
47365;SDS011;33105;47.964;7.982;2023-08-21T01:20:51;13.05;;;7.72;;
47365;SDS011;33105;47.964;7.982;2023-08-21T01:25:27;12.10;;;7.70;;
47365;SDS011;33105;47.964;7.982;2023-08-21T01:29:13;16.48;;;8.55;;
47365;SDS011;33105;47.964;7.982;2023-08-21T01:36:57;10.23;;;8.23;;
47365;SDS011;33105;47.964;7.982;2023-08-21T01:39:59;15.30;;;7.78;;
47365;SDS011;33105;47.964;7.982;2023-08-21T01:46:53;11.35;;;7.35;;
47365;SDS011;33105;47.964;7.982;2023-08-21T01:49:54;12.18;;;7.80;;
47365;SDS011;33105;47.964;7.982;2023-08-21T01:53:09;9.77;;;7.20;;
47365;SDS011;33105;47.964;7.982;2023-08-21T01:56:26;13.35;;;7.38;;
47365;SDS011;33105;47.964;7.982;2023-08-21T01:59:33;9.65;;;7.57;;
47365;SDS011;33105;47.964;7.982;2023-08-21T02:02:39;12.10;;;7.80;;
47365;SDS011;33105;47.964;7.982;2023-08-21T02:06:14;11.82;;;8.07;;
47365;SDS011;33105;47.964;7.982;2023-08-21T02:09:16;16.27;;;7.40;;
47365;SDS011;33105;47.964;7.982;2023-08-21T02:12:26;11.93;;;6.78;;
47365;SDS011;33105;47.964;7.982;2023-08-21T02:15:31;10.13;;;7.22;;
47365;SDS011;33105;47.964;7.982;2023-08-21T02:18:47;13.05;;;7.47;;
47365;SDS011;33105;47.964;7.982;2023-08-21T02:21:48;10.40;;;6.88;;
47365;SDS011;33105;47.964;7.982;2023-08-21T02:25:22;12.05;;;7.43;;
47365;SDS011;33105;47.964;7.982;2023-08-21T02:28:30;11.20;;;8.05;;
47365;SDS011;33105;47.964;7.982;2023-08-21T02:31:47;11.75;;;7.30;;
47365;SDS011;33105;47.964;7.982;2023-08-21T02:35:28;9.52;;;6.85;;
47365;SDS011;33105;47.964;7.982;2023-08-21T02:39:19;11.52;;;7.93;;
47365;SDS011;33105;47.964;7.982;2023-08-21T02:42:40;11.10;;;7.22;;
47365;SDS011;33105;47.964;7.982;2023-08-21T02:46:26;14.02;;;7.32;;
47365;SDS011;33105;47.964;7.982;2023-08-21T02:49:28;13.68;;;7.68;;
47365;SDS011;33105;47.964;7.982;2023-08-21T02:52:39;10.88;;;7.32;;
47365;SDS011;33105;47.964;7.982;2023-08-21T02:55:50;11.32;;;7.30;;
47365;SDS011;33105;47.964;7.982;2023-08-21T02:58:51;10.40;;;7.35;;
47365;SDS011;33105;47.964;7.982;2023-08-21T03:01:52;8.75;;;6.82;;
47365;SDS011;33105;47.964;7.982;2023-08-21T03:05:00;8.63;;;6.88;;
47365;SDS011;33105;47.964;7.982;2023-08-21T03:08:02;9.65;;;7.20;;
47365;SDS011;33105;47.964;7.982;2023-08-21T03:14:20;8.98;;;6.80;;
47365;SDS011;33105;47.964;7.982;2023-08-21T03:17:25;8.07;;;7.03;;
47365;SDS011;33105;47.964;7.982;2023-08-21T03:24:47;10.13;;;7.45;;
47365;SDS011;33105;47.964;7.982;2023-08-21T03:27:58;10.30;;;7.03;;
47365;SDS011;33105;47.964;7.982;2023-08-21T03:31:03;9.75;;;7.55;;
47365;SDS011;33105;47.964;7.982;2023-08-21T03:34:11;11.10;;;7.97;;
47365;SDS011;33105;47.964;7.982;2023-08-21T03:38:04;10.60;;;8.13;;
47365;SDS011;33105;47.964;7.982;2023-08-21T03:41:14;9.48;;;7.95;;
47365;SDS011;33105;47.964;7.982;2023-08-21T03:47:39;13.38;;;8.45;;
47365;SDS011;33105;47.964;7.982;2023-08-21T03:51:03;10.27;;;8.35;;
47365;SDS011;33105;47.964;7.982;2023-08-21T03:54:14;11.15;;;8.15;;
47365;SDS011;33105;47.964;7.982;2023-08-21T03:58:03;10.77;;;8.10;;
47365;SDS011;33105;47.964;7.982;2023-08-21T04:01:11;13.05;;;8.45;;
47365;SDS011;33105;47.964;7.982;2023-08-21T04:04:13;10.35;;;7.88;;
47365;SDS011;33105;47.964;7.982;2023-08-21T04:07:14;10.38;;;7.47;;
47365;SDS011;33105;47.964;7.982;2023-08-21T04:10:19;14.50;;;7.72;;
47365;SDS011;33105;47.964;7.982;2023-08-21T04:13:20;9.52;;;7.60;;
47365;SDS011;33105;47.964;7.982;2023-08-21T04:16:25;12.98;;;8.10;;
47365;SDS011;33105;47.964;7.982;2023-08-21T04:19:28;9.43;;;7.25;;
47365;SDS011;33105;47.964;7.982;2023-08-21T04:22:45;10.43;;;8.23;;
47365;SDS011;33105;47.964;7.982;2023-08-21T04:26:02;11.10;;;8.00;;
47365;SDS011;33105;47.964;7.982;2023-08-21T04:29:07;8.80;;;7.78;;
47365;SDS011;33105;47.964;7.982;2023-08-21T04:32:27;10.05;;;7.68;;
47365;SDS011;33105;47.964;7.982;2023-08-21T04:35:36;12.23;;;8.23;;
47365;SDS011;33105;47.964;7.982;2023-08-21T04:38:58;13.70;;;8.43;;
47365;SDS011;33105;47.964;7.982;2023-08-21T04:42:38;15.50;;;7.40;;
47365;SDS011;33105;47.964;7.982;2023-08-21T04:45:50;12.75;;;7.65;;
47365;SDS011;33105;47.964;7.982;2023-08-21T04:49:04;12.57;;;7.97;;
47365;SDS011;33105;47.964;7.982;2023-08-21T04:52:36;12.07;;;8.03;;
47365;SDS011;33105;47.964;7.982;2023-08-21T04:55:41;10.93;;;7.60;;
47365;SDS011;33105;47.964;7.982;2023-08-21T04:59:10;11.13;;;7.47;;
47365;SDS011;33105;47.964;7.982;2023-08-21T05:02:45;12.45;;;7.47;;
47365;SDS011;33105;47.964;7.982;2023-08-21T05:05:57;12.45;;;7.25;;
47365;SDS011;33105;47.964;7.982;2023-08-21T05:09:11;9.38;;;7.15;;
47365;SDS011;33105;47.964;7.982;2023-08-21T05:12:12;10.52;;;7.90;;
47365;SDS011;33105;47.964;7.982;2023-08-21T05:15:17;10.38;;;8.07;;
47365;SDS011;33105;47.964;7.982;2023-08-21T05:18:26;10.73;;;7.45;;
47365;SDS011;33105;47.964;7.982;2023-08-21T05:21:34;12.00;;;7.53;;
47365;SDS011;33105;47.964;7.982;2023-08-21T05:24:41;9.93;;;7.35;;
47365;SDS011;33105;47.964;7.982;2023-08-21T05:27:54;14.10;;;7.97;;
47365;SDS011;33105;47.964;7.982;2023-08-21T05:31:04;12.70;;;7.40;;
47365;SDS011;33105;47.964;7.982;2023-08-21T05:34:23;10.80;;;7.45;;
47365;SDS011;33105;47.964;7.982;2023-08-21T05:37:26;11.50;;;7.75;;
47365;SDS011;33105;47.964;7.982;2023-08-21T05:40:30;11.18;;;7.55;;
47365;SDS011;33105;47.964;7.982;2023-08-21T05:43:34;8.50;;;7.60;;
47365;SDS011;33105;47.964;7.982;2023-08-21T05:46:36;13.82;;;7.63;;
47365;SDS011;33105;47.964;7.982;2023-08-21T05:53:10;11.30;;;8.00;;
47365;SDS011;33105;47.964;7.982;2023-08-21T05:56:12;8.10;;;7.28;;
47365;SDS011;33105;47.964;7.982;2023-08-21T05:59:35;9.55;;;8.00;;
47365;SDS011;33105;47.964;7.982;2023-08-21T06:02:40;9.18;;;7.40;;
47365;SDS011;33105;47.964;7.982;2023-08-21T06:06:35;8.70;;;7.78;;
47365;SDS011;33105;47.964;7.982;2023-08-21T06:13:05;9.85;;;7.93;;
47365;SDS011;33105;47.964;7.982;2023-08-21T06:16:13;9.88;;;7.28;;
47365;SDS011;33105;47.964;7.982;2023-08-21T06:19:34;9.20;;;7.10;;
47365;SDS011;33105;47.964;7.982;2023-08-21T06:22:57;8.05;;;6.97;;
47365;SDS011;33105;47.964;7.982;2023-08-21T06:25:59;15.48;;;6.90;;
47365;SDS011;33105;47.964;7.982;2023-08-21T06:29:55;10.38;;;6.93;;
47365;SDS011;33105;47.964;7.982;2023-08-21T06:32:58;9.93;;;7.57;;
47365;SDS011;33105;47.964;7.982;2023-08-21T06:36:01;14.32;;;7.35;;
47365;SDS011;33105;47.964;7.982;2023-08-21T06:39:09;16.00;;;7.47;;
47365;SDS011;33105;47.964;7.982;2023-08-21T06:42:13;10.68;;;6.88;;
47365;SDS011;33105;47.964;7.982;2023-08-21T06:45:23;12.23;;;7.40;;
47365;SDS011;33105;47.964;7.982;2023-08-21T06:48:38;12.00;;;7.20;;
47365;SDS011;33105;47.964;7.982;2023-08-21T06:51:41;11.25;;;7.40;;
47365;SDS011;33105;47.964;7.982;2023-08-21T06:54:43;13.77;;;7.70;;
47365;SDS011;33105;47.964;7.982;2023-08-21T06:57:44;10.13;;;6.70;;
47365;SDS011;33105;47.964;7.982;2023-08-21T07:00:46;10.85;;;6.82;;
47365;SDS011;33105;47.964;7.982;2023-08-21T07:03:59;7.45;;;6.63;;
47365;SDS011;33105;47.964;7.982;2023-08-21T07:07:01;8.73;;;6.97;;
47365;SDS011;33105;47.964;7.982;2023-08-21T07:10:16;9.73;;;6.60;;
47365;SDS011;33105;47.964;7.982;2023-08-21T07:13:18;8.82;;;6.68;;
47365;SDS011;33105;47.964;7.982;2023-08-21T07:16:20;10.13;;;7.18;;
47365;SDS011;33105;47.964;7.982;2023-08-21T07:19:22;8.00;;;6.97;;
47365;SDS011;33105;47.964;7.982;2023-08-21T07:22:23;9.95;;;6.65;;
47365;SDS011;33105;47.964;7.982;2023-08-21T07:25:39;8.82;;;6.65;;
47365;SDS011;33105;47.964;7.982;2023-08-21T07:28:41;7.82;;;6.95;;
47365;SDS011;33105;47.964;7.982;2023-08-21T07:32:15;9.93;;;6.93;;
47365;SDS011;33105;47.964;7.982;2023-08-21T07:39:18;9.48;;;6.20;;
47365;SDS011;33105;47.964;7.982;2023-08-21T07:42:19;11.38;;;7.03;;
47365;SDS011;33105;47.964;7.982;2023-08-21T07:45:21;11.40;;;7.55;;
47365;SDS011;33105;47.964;7.982;2023-08-21T07:48:22;11.75;;;7.25;;
47365;SDS011;33105;47.964;7.982;2023-08-21T07:51:24;11.30;;;6.57;;
47365;SDS011;33105;47.964;7.982;2023-08-21T07:54:29;10.75;;;7.28;;
47365;SDS011;33105;47.964;7.982;2023-08-21T07:57:34;11.35;;;6.80;;
47365;SDS011;33105;47.964;7.982;2023-08-21T08:01:19;9.70;;;6.70;;
47365;SDS011;33105;47.964;7.982;2023-08-21T08:04:21;14.45;;;7.10;;
47365;SDS011;33105;47.964;7.982;2023-08-21T08:07:23;11.18;;;7.32;;
47365;SDS011;33105;47.964;7.982;2023-08-21T08:10:30;17.98;;;7.70;;
47365;SDS011;33105;47.964;7.982;2023-08-21T08:13:32;11.65;;;7.28;;
47365;SDS011;33105;47.964;7.982;2023-08-21T08:16:41;18.73;;;8.27;;
47365;SDS011;33105;47.964;7.982;2023-08-21T08:19:43;9.88;;;7.25;;
47365;SDS011;33105;47.964;7.982;2023-08-21T08:22:54;13.33;;;7.87;;
47365;SDS011;33105;47.964;7.982;2023-08-21T08:25:56;12.55;;;7.78;;
47365;SDS011;33105;47.964;7.982;2023-08-21T08:28:58;11.52;;;7.88;;
47365;SDS011;33105;47.964;7.982;2023-08-21T08:31:59;14.88;;;8.48;;
47365;SDS011;33105;47.964;7.982;2023-08-21T08:35:01;11.82;;;8.23;;
47365;SDS011;33105;47.964;7.982;2023-08-21T08:38:02;10.00;;;7.53;;
47365;SDS011;33105;47.964;7.982;2023-08-21T08:41:07;10.52;;;7.20;;
47365;SDS011;33105;47.964;7.982;2023-08-21T08:44:16;9.13;;;6.97;;
47365;SDS011;33105;47.964;7.982;2023-08-21T08:47:18;12.63;;;7.38;;
47365;SDS011;33105;47.964;7.982;2023-08-21T08:50:20;13.65;;;7.47;;
47365;SDS011;33105;47.964;7.982;2023-08-21T08:53:22;10.57;;;7.07;;
47365;SDS011;33105;47.964;7.982;2023-08-21T08:56:25;11.60;;;7.43;;
47365;SDS011;33105;47.964;7.982;2023-08-21T08:59:30;9.40;;;6.95;;
47365;SDS011;33105;47.964;7.982;2023-08-21T09:02:32;10.30;;;7.47;;
47365;SDS011;33105;47.964;7.982;2023-08-21T09:05:45;9.75;;;7.05;;
47365;SDS011;33105;47.964;7.982;2023-08-21T09:08:58;11.52;;;7.53;;
47365;SDS011;33105;47.964;7.982;2023-08-21T09:12:00;12.90;;;7.20;;
47365;SDS011;33105;47.964;7.982;2023-08-21T09:15:01;11.70;;;7.72;;
47365;SDS011;33105;47.964;7.982;2023-08-21T09:18:11;11.93;;;7.20;;
47365;SDS011;33105;47.964;7.982;2023-08-21T09:21:15;12.13;;;6.68;;
47365;SDS011;33105;47.964;7.982;2023-08-21T09:24:18;9.05;;;6.90;;
47365;SDS011;33105;47.964;7.982;2023-08-21T09:27:19;9.38;;;6.43;;
47365;SDS011;33105;47.964;7.982;2023-08-21T09:30:20;11.35;;;6.85;;
47365;SDS011;33105;47.964;7.982;2023-08-21T09:33:25;11.00;;;6.38;;
47365;SDS011;33105;47.964;7.982;2023-08-21T09:36:29;11.00;;;6.60;;
47365;SDS011;33105;47.964;7.982;2023-08-21T09:39:35;14.60;;;6.80;;
47365;SDS011;33105;47.964;7.982;2023-08-21T09:42:39;9.82;;;6.88;;
47365;SDS011;33105;47.964;7.982;2023-08-21T09:45:40;8.45;;;6.05;;
47365;SDS011;33105;47.964;7.982;2023-08-21T09:48:43;10.98;;;6.40;;
47365;SDS011;33105;47.964;7.982;2023-08-21T09:51:49;9.05;;;6.05;;
47365;SDS011;33105;47.964;7.982;2023-08-21T09:54:53;8.25;;;5.70;;
47365;SDS011;33105;47.964;7.982;2023-08-21T09:57:58;14.20;;;6.38;;
47365;SDS011;33105;47.964;7.982;2023-08-21T10:01:00;11.25;;;6.43;;
47365;SDS011;33105;47.964;7.982;2023-08-21T10:04:12;12.57;;;6.65;;
47365;SDS011;33105;47.964;7.982;2023-08-21T10:07:20;10.02;;;6.43;;
47365;SDS011;33105;47.964;7.982;2023-08-21T10:10:25;13.02;;;6.70;;
47365;SDS011;33105;47.964;7.982;2023-08-21T10:13:27;12.35;;;6.13;;
47365;SDS011;33105;47.964;7.982;2023-08-21T10:16:29;7.00;;;5.53;;
47365;SDS011;33105;47.964;7.982;2023-08-21T10:19:31;12.55;;;6.60;;
47365;SDS011;33105;47.964;7.982;2023-08-21T10:22:37;11.30;;;6.43;;
47365;SDS011;33105;47.964;7.982;2023-08-21T10:25:45;15.65;;;6.80;;
47365;SDS011;33105;47.964;7.982;2023-08-21T10:31:58;11.77;;;6.03;;
47365;SDS011;33105;47.964;7.982;2023-08-21T10:35:03;9.32;;;6.15;;
47365;SDS011;33105;47.964;7.982;2023-08-21T10:38:05;11.75;;;6.63;;
47365;SDS011;33105;47.964;7.982;2023-08-21T10:41:17;14.30;;;6.82;;
47365;SDS011;33105;47.964;7.982;2023-08-21T10:44:37;13.68;;;6.38;;
47365;SDS011;33105;47.964;7.982;2023-08-21T10:47:41;9.90;;;5.43;;
47365;SDS011;33105;47.964;7.982;2023-08-21T10:50:42;13.60;;;6.32;;
47365;SDS011;33105;47.964;7.982;2023-08-21T10:53:46;12.52;;;5.88;;
47365;SDS011;33105;47.964;7.982;2023-08-21T10:56:47;9.27;;;5.85;;
47365;SDS011;33105;47.964;7.982;2023-08-21T10:59:53;11.10;;;6.20;;
47365;SDS011;33105;47.964;7.982;2023-08-21T11:02:58;10.30;;;6.07;;
47365;SDS011;33105;47.964;7.982;2023-08-21T11:06:03;13.55;;;5.80;;
47365;SDS011;33105;47.964;7.982;2023-08-21T11:09:12;8.98;;;5.75;;
47365;SDS011;33105;47.964;7.982;2023-08-21T11:12:15;12.27;;;5.47;;
47365;SDS011;33105;47.964;7.982;2023-08-21T11:15:17;13.40;;;5.82;;
47365;SDS011;33105;47.964;7.982;2023-08-21T11:18:19;10.35;;;5.75;;
47365;SDS011;33105;47.964;7.982;2023-08-21T11:21:26;11.43;;;5.57;;
47365;SDS011;33105;47.964;7.982;2023-08-21T11:24:46;13.15;;;6.28;;
47365;SDS011;33105;47.964;7.982;2023-08-21T11:27:49;10.98;;;5.03;;
47365;SDS011;33105;47.964;7.982;2023-08-21T11:30:50;11.13;;;5.55;;
47365;SDS011;33105;47.964;7.982;2023-08-21T11:33:52;9.88;;;5.22;;
47365;SDS011;33105;47.964;7.982;2023-08-21T11:36:53;8.82;;;5.05;;
47365;SDS011;33105;47.964;7.982;2023-08-21T11:39:55;9.85;;;5.57;;
47365;SDS011;33105;47.964;7.982;2023-08-21T11:43:01;8.93;;;5.50;;
47365;SDS011;33105;47.964;7.982;2023-08-21T11:46:03;11.68;;;5.47;;
47365;SDS011;33105;47.964;7.982;2023-08-21T11:49:05;11.75;;;5.10;;
47365;SDS011;33105;47.964;7.982;2023-08-21T11:52:06;12.30;;;5.40;;
47365;SDS011;33105;47.964;7.982;2023-08-21T11:55:11;9.07;;;4.93;;
47365;SDS011;33105;47.964;7.982;2023-08-21T11:58:12;12.23;;;5.25;;
47365;SDS011;33105;47.964;7.982;2023-08-21T12:01:20;9.85;;;5.10;;
47365;SDS011;33105;47.964;7.982;2023-08-21T12:04:22;8.38;;;5.30;;
47365;SDS011;33105;47.964;7.982;2023-08-21T12:07:24;9.10;;;4.72;;
47365;SDS011;33105;47.964;7.982;2023-08-21T12:10:27;10.23;;;4.63;;
47365;SDS011;33105;47.964;7.982;2023-08-21T12:13:30;10.60;;;5.35;;
47365;SDS011;33105;47.964;7.982;2023-08-21T12:16:31;11.05;;;5.00;;
47365;SDS011;33105;47.964;7.982;2023-08-21T12:19:33;6.93;;;4.90;;
47365;SDS011;33105;47.964;7.982;2023-08-21T12:22:34;11.20;;;4.55;;
47365;SDS011;33105;47.964;7.982;2023-08-21T12:25:36;10.43;;;5.38;;
47365;SDS011;33105;47.964;7.982;2023-08-21T12:28:37;11.70;;;5.15;;
47365;SDS011;33105;47.964;7.982;2023-08-21T12:31:38;8.07;;;4.82;;
47365;SDS011;33105;47.964;7.982;2023-08-21T12:34:39;12.43;;;4.93;;
47365;SDS011;33105;47.964;7.982;2023-08-21T12:37:40;11.02;;;5.00;;
47365;SDS011;33105;47.964;7.982;2023-08-21T12:40:42;10.57;;;5.00;;
47365;SDS011;33105;47.964;7.982;2023-08-21T12:43:43;6.88;;;4.80;;
47365;SDS011;33105;47.964;7.982;2023-08-21T12:46:44;12.82;;;4.70;;
47365;SDS011;33105;47.964;7.982;2023-08-21T12:49:46;13.52;;;5.88;;
47365;SDS011;33105;47.964;7.982;2023-08-21T12:52:48;12.88;;;5.18;;
47365;SDS011;33105;47.964;7.982;2023-08-21T12:55:49;12.85;;;4.75;;
47365;SDS011;33105;47.964;7.982;2023-08-21T12:58:51;8.20;;;4.80;;
47365;SDS011;33105;47.964;7.982;2023-08-21T13:01:52;11.13;;;4.55;;
47365;SDS011;33105;47.964;7.982;2023-08-21T13:04:56;8.88;;;5.40;;
47365;SDS011;33105;47.964;7.982;2023-08-21T13:07:57;11.35;;;5.00;;
47365;SDS011;33105;47.964;7.982;2023-08-21T13:11:03;8.30;;;4.70;;
47365;SDS011;33105;47.964;7.982;2023-08-21T13:14:10;13.48;;;4.68;;
47365;SDS011;33105;47.964;7.982;2023-08-21T13:17:16;14.20;;;5.75;;
47365;SDS011;33105;47.964;7.982;2023-08-21T13:20:25;13.35;;;5.00;;
47365;SDS011;33105;47.964;7.982;2023-08-21T13:23:28;13.77;;;5.10;;
47365;SDS011;33105;47.964;7.982;2023-08-21T13:26:33;12.10;;;4.80;;
47365;SDS011;33105;47.964;7.982;2023-08-21T13:29:35;8.73;;;4.70;;
47365;SDS011;33105;47.964;7.982;2023-08-21T13:32:36;12.85;;;5.70;;
47365;SDS011;33105;47.964;7.982;2023-08-21T13:35:37;6.75;;;4.53;;
47365;SDS011;33105;47.964;7.982;2023-08-21T13:38:38;7.93;;;4.70;;
47365;SDS011;33105;47.964;7.982;2023-08-21T13:41:39;14.98;;;4.90;;
47365;SDS011;33105;47.964;7.982;2023-08-21T13:44:41;10.95;;;4.85;;
47365;SDS011;33105;47.964;7.982;2023-08-21T13:47:45;7.45;;;4.55;;
47365;SDS011;33105;47.964;7.982;2023-08-21T13:50:48;11.60;;;4.72;;
47365;SDS011;33105;47.964;7.982;2023-08-21T13:53:50;9.48;;;4.40;;
47365;SDS011;33105;47.964;7.982;2023-08-21T13:56:51;13.18;;;4.97;;
47365;SDS011;33105;47.964;7.982;2023-08-21T13:59:53;11.57;;;4.40;;
47365;SDS011;33105;47.964;7.982;2023-08-21T14:02:54;12.90;;;4.30;;
47365;SDS011;33105;47.964;7.982;2023-08-21T14:05:55;7.57;;;4.75;;
47365;SDS011;33105;47.964;7.982;2023-08-21T14:08:56;8.65;;;4.97;;
47365;SDS011;33105;47.964;7.982;2023-08-21T14:11:58;9.52;;;5.10;;
47365;SDS011;33105;47.964;7.982;2023-08-21T14:15:00;9.52;;;4.40;;
47365;SDS011;33105;47.964;7.982;2023-08-21T14:18:04;12.90;;;4.55;;
47365;SDS011;33105;47.964;7.982;2023-08-21T14:21:06;9.30;;;4.20;;
47365;SDS011;33105;47.964;7.982;2023-08-21T14:24:07;8.68;;;4.18;;
47365;SDS011;33105;47.964;7.982;2023-08-21T14:27:09;7.25;;;4.03;;
47365;SDS011;33105;47.964;7.982;2023-08-21T14:30:12;6.35;;;4.00;;
47365;SDS011;33105;47.964;7.982;2023-08-21T14:33:13;10.77;;;4.90;;
47365;SDS011;33105;47.964;7.982;2023-08-21T14:36:14;8.13;;;4.00;;
47365;SDS011;33105;47.964;7.982;2023-08-21T14:39:17;7.47;;;3.70;;
47365;SDS011;33105;47.964;7.982;2023-08-21T14:42:18;7.05;;;4.05;;
47365;SDS011;33105;47.964;7.982;2023-08-21T14:45:19;6.45;;;3.63;;
47365;SDS011;33105;47.964;7.982;2023-08-21T14:48:21;10.50;;;3.88;;
47365;SDS011;33105;47.964;7.982;2023-08-21T14:51:25;9.70;;;4.13;;
47365;SDS011;33105;47.964;7.982;2023-08-21T14:54:29;9.05;;;3.70;;
47365;SDS011;33105;47.964;7.982;2023-08-21T14:57:30;6.30;;;3.55;;
47365;SDS011;33105;47.964;7.982;2023-08-21T15:00:31;7.72;;;3.90;;
47365;SDS011;33105;47.964;7.982;2023-08-21T15:03:33;8.70;;;3.72;;
47365;SDS011;33105;47.964;7.982;2023-08-21T15:06:35;9.32;;;3.67;;
47365;SDS011;33105;47.964;7.982;2023-08-21T15:09:36;11.35;;;3.80;;
47365;SDS011;33105;47.964;7.982;2023-08-21T15:12:39;5.70;;;3.63;;
47365;SDS011;33105;47.964;7.982;2023-08-21T15:15:41;8.02;;;3.65;;
47365;SDS011;33105;47.964;7.982;2023-08-21T15:18:42;9.18;;;3.60;;
47365;SDS011;33105;47.964;7.982;2023-08-21T15:21:43;7.32;;;3.70;;
47365;SDS011;33105;47.964;7.982;2023-08-21T15:24:45;9.38;;;3.40;;
47365;SDS011;33105;47.964;7.982;2023-08-21T15:27:46;9.05;;;3.65;;
47365;SDS011;33105;47.964;7.982;2023-08-21T15:30:47;10.52;;;3.67;;
47365;SDS011;33105;47.964;7.982;2023-08-21T15:33:51;8.88;;;3.70;;
47365;SDS011;33105;47.964;7.982;2023-08-21T15:36:53;6.97;;;3.97;;
47365;SDS011;33105;47.964;7.982;2023-08-21T15:39:54;6.85;;;3.15;;
47365;SDS011;33105;47.964;7.982;2023-08-21T15:42:55;9.38;;;3.92;;
47365;SDS011;33105;47.964;7.982;2023-08-21T15:45:57;8.45;;;3.70;;
47365;SDS011;33105;47.964;7.982;2023-08-21T15:48:59;10.25;;;3.47;;
47365;SDS011;33105;47.964;7.982;2023-08-21T15:52:00;8.80;;;3.63;;
47365;SDS011;33105;47.964;7.982;2023-08-21T15:55:01;8.95;;;3.65;;
47365;SDS011;33105;47.964;7.982;2023-08-21T15:58:02;5.28;;;3.60;;
47365;SDS011;33105;47.964;7.982;2023-08-21T16:01:04;8.63;;;3.50;;
47365;SDS011;33105;47.964;7.982;2023-08-21T16:04:06;10.05;;;3.35;;
47365;SDS011;33105;47.964;7.982;2023-08-21T16:07:10;10.10;;;3.40;;
47365;SDS011;33105;47.964;7.982;2023-08-21T16:10:12;6.13;;;3.80;;
47365;SDS011;33105;47.964;7.982;2023-08-21T16:13:13;7.82;;;3.30;;
47365;SDS011;33105;47.964;7.982;2023-08-21T16:16:18;7.07;;;3.00;;
47365;SDS011;33105;47.964;7.982;2023-08-21T16:19:19;8.07;;;3.40;;
47365;SDS011;33105;47.964;7.982;2023-08-21T16:22:20;8.13;;;3.53;;
47365;SDS011;33105;47.964;7.982;2023-08-21T16:25:22;8.95;;;3.30;;
47365;SDS011;33105;47.964;7.982;2023-08-21T16:28:23;7.78;;;3.40;;
47365;SDS011;33105;47.964;7.982;2023-08-21T16:31:25;5.35;;;3.10;;
47365;SDS011;33105;47.964;7.982;2023-08-21T16:34:26;5.68;;;3.40;;
47365;SDS011;33105;47.964;7.982;2023-08-21T16:37:28;7.95;;;3.38;;
47365;SDS011;33105;47.964;7.982;2023-08-21T16:40:29;6.53;;;3.35;;
47365;SDS011;33105;47.964;7.982;2023-08-21T16:43:30;11.25;;;3.78;;
47365;SDS011;33105;47.964;7.982;2023-08-21T16:46:32;10.30;;;3.40;;
47365;SDS011;33105;47.964;7.982;2023-08-21T16:49:34;6.70;;;3.47;;
47365;SDS011;33105;47.964;7.982;2023-08-21T16:52:35;6.20;;;3.55;;
47365;SDS011;33105;47.964;7.982;2023-08-21T16:55:36;7.38;;;3.45;;
47365;SDS011;33105;47.964;7.982;2023-08-21T16:58:37;4.68;;;3.35;;
47365;SDS011;33105;47.964;7.982;2023-08-21T17:01:39;6.88;;;3.40;;
47365;SDS011;33105;47.964;7.982;2023-08-21T17:04:40;11.55;;;3.85;;
47365;SDS011;33105;47.964;7.982;2023-08-21T17:07:41;5.93;;;3.08;;
47365;SDS011;33105;47.964;7.982;2023-08-21T17:10:44;9.25;;;3.33;;
47365;SDS011;33105;47.964;7.982;2023-08-21T17:13:46;6.72;;;3.47;;
47365;SDS011;33105;47.964;7.982;2023-08-21T17:16:50;4.97;;;3.38;;
47365;SDS011;33105;47.964;7.982;2023-08-21T17:19:51;7.10;;;3.42;;
47365;SDS011;33105;47.964;7.982;2023-08-21T17:22:56;7.07;;;3.50;;
47365;SDS011;33105;47.964;7.982;2023-08-21T17:25:57;6.88;;;3.63;;
47365;SDS011;33105;47.964;7.982;2023-08-21T17:28:59;8.50;;;3.15;;
47365;SDS011;33105;47.964;7.982;2023-08-21T17:32:10;9.07;;;3.53;;
47365;SDS011;33105;47.964;7.982;2023-08-21T17:35:12;8.95;;;3.53;;
47365;SDS011;33105;47.964;7.982;2023-08-21T17:38:13;8.95;;;3.63;;
47365;SDS011;33105;47.964;7.982;2023-08-21T17:41:14;12.63;;;4.53;;
47365;SDS011;33105;47.964;7.982;2023-08-21T17:44:16;12.85;;;3.92;;
47365;SDS011;33105;47.964;7.982;2023-08-21T17:47:20;8.07;;;3.50;;
47365;SDS011;33105;47.964;7.982;2023-08-21T17:50:21;7.20;;;3.45;;
47365;SDS011;33105;47.964;7.982;2023-08-21T17:53:24;9.07;;;4.07;;
47365;SDS011;33105;47.964;7.982;2023-08-21T17:56:26;8.73;;;3.80;;
47365;SDS011;33105;47.964;7.982;2023-08-21T17:59:30;11.10;;;4.03;;
47365;SDS011;33105;47.964;7.982;2023-08-21T18:02:32;7.13;;;4.43;;
47365;SDS011;33105;47.964;7.982;2023-08-21T18:05:33;10.43;;;4.63;;
47365;SDS011;33105;47.964;7.982;2023-08-21T18:08:38;11.38;;;4.53;;
47365;SDS011;33105;47.964;7.982;2023-08-21T18:11:39;6.03;;;4.00;;
47365;SDS011;33105;47.964;7.982;2023-08-21T18:14:40;8.00;;;4.07;;
47365;SDS011;33105;47.964;7.982;2023-08-21T18:17:42;8.85;;;4.38;;
47365;SDS011;33105;47.964;7.982;2023-08-21T18:20:47;7.57;;;4.00;;
47365;SDS011;33105;47.964;7.982;2023-08-21T18:23:54;9.90;;;4.78;;
47365;SDS011;33105;47.964;7.982;2023-08-21T18:26:55;5.85;;;4.35;;
47365;SDS011;33105;47.964;7.982;2023-08-21T18:29:57;10.27;;;4.20;;
47365;SDS011;33105;47.964;7.982;2023-08-21T18:32:59;11.18;;;3.67;;
47365;SDS011;33105;47.964;7.982;2023-08-21T18:36:00;9.07;;;4.45;;
47365;SDS011;33105;47.964;7.982;2023-08-21T18:39:02;8.18;;;4.25;;
47365;SDS011;33105;47.964;7.982;2023-08-21T18:42:04;8.75;;;4.13;;
47365;SDS011;33105;47.964;7.982;2023-08-21T18:45:08;6.55;;;4.00;;
47365;SDS011;33105;47.964;7.982;2023-08-21T18:48:10;7.55;;;4.35;;
47365;SDS011;33105;47.964;7.982;2023-08-21T18:51:11;8.05;;;4.63;;
47365;SDS011;33105;47.964;7.982;2023-08-21T18:54:13;8.40;;;4.10;;
47365;SDS011;33105;47.964;7.982;2023-08-21T18:57:14;8.02;;;4.20;;
47365;SDS011;33105;47.964;7.982;2023-08-21T19:00:22;8.00;;;3.83;;
47365;SDS011;33105;47.964;7.982;2023-08-21T19:03:25;7.65;;;4.13;;
47365;SDS011;33105;47.964;7.982;2023-08-21T19:06:30;7.97;;;3.75;;
47365;SDS011;33105;47.964;7.982;2023-08-21T19:09:32;7.03;;;4.75;;
47365;SDS011;33105;47.964;7.982;2023-08-21T19:12:33;12.45;;;4.88;;
47365;SDS011;33105;47.964;7.982;2023-08-21T19:15:47;8.60;;;4.43;;
47365;SDS011;33105;47.964;7.982;2023-08-21T19:18:51;8.25;;;4.35;;
47365;SDS011;33105;47.964;7.982;2023-08-21T19:21:53;8.07;;;4.53;;
47365;SDS011;33105;47.964;7.982;2023-08-21T19:24:55;8.25;;;4.75;;
47365;SDS011;33105;47.964;7.982;2023-08-21T19:27:58;6.38;;;4.30;;